Time;durP1;ratioP1;P1;durP2;ratioP2;P2;SDS_P1;SDS_P2;PMS_P1;PMS_P2;Temp;Humidity;BMP_temperature;BMP_pressure;BME280_temperature;BME280_humidity;BME280_pressure;Samples;Min_cycle;Max_cycle;Signal;HPM_P1;HPM_P2
2022/12/07 00:00:03;;;;;;;9.90;1.50;;;5.40;99.90;;;;;;5059632;28;20063;-70
2022/12/07 00:02:30;;;;;;;4.25;0.90;;;5.40;99.90;;;;;;5067940;28;20047;-71
2022/12/07 00:04:56;;;;;;;8.05;1.00;;;5.50;99.90;;;;;;5069566;28;20020;-70
2022/12/07 00:07:21;;;;;;;10.60;1.25;;;5.50;99.90;;;;;;5071523;28;20031;-70
2022/12/07 00:09:47;;;;;;;10.00;1.00;;;5.60;99.90;;;;;;5061792;28;20024;-70
2022/12/07 00:12:12;;;;;;;9.90;1.00;;;5.70;99.90;;;;;;5070348;28;20104;-70
2022/12/07 00:14:38;;;;;;;5.72;1.00;;;5.70;99.90;;;;;;5056487;28;20025;-70
2022/12/07 00:17:03;;;;;;;5.53;0.88;;;5.70;99.90;;;;;;5062936;28;20017;-71
2022/12/07 00:19:29;;;;;;;4.90;0.85;;;5.70;99.90;;;;;;5065912;28;20082;-71
2022/12/07 00:21:54;;;;;;;6.80;1.60;;;5.60;99.90;;;;;;5063628;28;20025;-71
2022/12/07 00:24:20;;;;;;;3.28;0.80;;;5.60;99.90;;;;;;5057891;28;20020;-70
2022/12/07 00:26:46;;;;;;;7.95;0.77;;;5.50;99.90;;;;;;5066267;28;20421;-71
2022/12/07 00:29:19;;;;;;;5.53;0.95;;;5.40;99.90;;;;;;5054930;28;20165;-71
2022/12/07 00:31:45;;;;;;;6.57;1.60;;;5.30;99.90;;;;;;5070045;28;20425;-70
2022/12/07 00:34:16;;;;;;;4.47;0.77;;;5.20;99.90;;;;;;5069681;28;20492;-71
2022/12/07 00:36:41;;;;;;;4.40;0.80;;;5.20;99.90;;;;;;5058671;28;20112;-70
2022/12/07 00:39:08;;;;;;;2.30;0.60;;;5.10;99.90;;;;;;5058499;28;20603;-71
2022/12/07 00:41:33;;;;;;;3.92;0.70;;;5.00;99.90;;;;;;5069709;28;20035;-70
2022/12/07 00:43:59;;;;;;;3.40;1.08;;;4.90;99.90;;;;;;5069642;28;20021;-71
2022/12/07 00:46:25;;;;;;;4.82;0.77;;;4.80;99.90;;;;;;5068650;28;20089;-70
2022/12/07 00:48:52;;;;;;;3.40;0.80;;;4.80;99.90;;;;;;5070008;28;20431;-70
2022/12/07 00:51:20;;;;;;;6.20;1.10;;;4.70;99.90;;;;;;5060314;28;20037;-70
2022/12/07 00:53:46;;;;;;;3.42;0.93;;;4.60;99.90;;;;;;5061743;28;20037;-70
2022/12/07 00:56:14;;;;;;;4.45;0.80;;;4.60;99.90;;;;;;5052286;28;20032;-70
2022/12/07 00:58:40;;;;;;;4.00;0.80;;;4.50;99.90;;;;;;5057546;28;20072;-70
2022/12/07 01:01:07;;;;;;;3.60;0.93;;;4.40;99.90;;;;;;5056135;28;20025;-71
2022/12/07 01:03:32;;;;;;;4.50;0.73;;;4.40;99.90;;;;;;5064292;28;20025;-70
2022/12/07 01:05:58;;;;;;;7.30;1.20;;;4.30;99.90;;;;;;5063054;28;20303;-71
2022/12/07 01:08:26;;;;;;;4.50;0.90;;;4.30;99.90;;;;;;5060055;28;20021;-71
2022/12/07 01:11:06;;;;;;;3.40;0.80;;;4.20;99.90;;;;;;5058874;28;20099;-71
2022/12/07 01:13:34;;;;;;;3.22;0.80;;;4.20;99.90;;;;;;5053600;28;20476;-70
2022/12/07 01:16:03;;;;;;;4.40;1.08;;;4.10;99.90;;;;;;5059917;28;20043;-71
2022/12/07 01:18:31;;;;;;;4.70;0.82;;;4.10;99.90;;;;;;5059292;28;20151;-70
2022/12/07 01:21:24;;;;;;;1.92;0.80;;;4.00;99.90;;;;;;5068672;28;20028;-71
2022/12/07 01:23:49;;;;;;;5.03;0.90;;;4.00;99.90;;;;;;5058464;28;20071;-70
2022/12/07 01:26:18;;;;;;;5.35;1.00;;;4.00;99.90;;;;;;5065525;28;20049;-70
2022/12/07 01:28:44;;;;;;;3.00;0.90;;;3.90;99.90;;;;;;5069652;28;20027;-70
2022/12/07 01:31:15;;;;;;;5.55;0.88;;;3.90;99.90;;;;;;5064259;28;20436;-70
2022/12/07 01:33:46;;;;;;;2.60;0.85;;;3.90;99.90;;;;;;5065588;28;20017;-70
2022/12/07 01:36:34;;;;;;;5.47;0.85;;;3.80;99.90;;;;;;5060935;28;20042;-70
2022/12/07 01:39:05;;;;;;;2.53;0.75;;;3.80;99.90;;;;;;5079460;28;20039;-71
2022/12/07 01:41:34;;;;;;;5.45;0.82;;;3.80;99.90;;;;;;5069533;28;20039;-69
2022/12/07 01:44:24;;;;;;;10.18;1.30;;;3.70;99.90;;;;;;5064984;28;20020;-70
2022/12/07 01:46:52;;;;;;;9.00;1.42;;;3.70;99.90;;;;;;5053068;28;20025;-71
2022/12/07 01:49:35;;;;;;;9.38;1.77;;;3.70;99.90;;;;;;5050661;28;20052;-70
2022/12/07 01:52:19;;;;;;;11.18;1.48;;;3.80;99.90;;;;;;5062060;28;20035;-71
2022/12/07 01:54:47;;;;;;;12.13;1.73;;;4.00;99.90;;;;;;5057527;28;20016;-71
2022/12/07 01:57:15;;;;;;;12.48;1.40;;;4.20;99.90;;;;;;5059556;28;20032;-71
2022/12/07 01:59:42;;;;;;;6.43;1.10;;;4.30;99.90;;;;;;5069520;28;20033;-71
2022/12/07 02:02:14;;;;;;;9.52;1.38;;;4.40;99.90;;;;;;5069153;28;20016;-70
2022/12/07 02:04:39;;;;;;;8.35;1.30;;;4.50;99.90;;;;;;5067334;28;20388;-70
2022/12/07 02:07:05;;;;;;;13.35;1.50;;;4.50;99.90;;;;;;5065974;28;20040;-70
2022/12/07 02:09:31;;;;;;;12.50;1.45;;;4.50;99.90;;;;;;5059048;28;20071;-70
2022/12/07 02:11:57;;;;;;;6.15;1.30;;;4.50;99.90;;;;;;5057669;28;20096;-71
2022/12/07 02:14:23;;;;;;;7.75;1.30;;;4.40;99.90;;;;;;5062058;28;20025;-70
2022/12/07 02:17:20;;;;;;;6.68;0.90;;;4.40;99.90;;;;;;5051157;28;20388;-70
2022/12/07 02:20:12;;;;;;;4.70;1.10;;;4.40;99.90;;;;;;5069753;28;20516;-70
2022/12/07 02:22:46;;;;;;;6.15;1.10;;;4.30;99.90;;;;;;5057470;28;20046;-70
2022/12/07 02:25:39;;;;;;;8.98;1.20;;;4.20;99.90;;;;;;5061198;28;20067;-70
2022/12/07 02:28:06;;;;;;;8.63;1.33;;;4.20;99.90;;;;;;5059646;28;20520;-70
2022/12/07 02:30:35;;;;;;;7.53;1.35;;;4.10;99.90;;;;;;5056770;28;20024;-71
2022/12/07 02:33:07;;;;;;;6.90;1.35;;;4.20;99.90;;;;;;5060562;28;20049;-70
2022/12/07 02:35:42;;;;;;;13.50;2.20;;;4.20;99.90;;;;;;5066498;28;20301;-70
2022/12/07 02:38:21;;;;;;;11.38;1.27;;;4.30;99.90;;;;;;5069556;28;20125;-70
2022/12/07 02:40:57;;;;;;;9.48;1.88;;;4.30;99.90;;;;;;5069548;28;20036;-70
2022/12/07 02:43:31;;;;;;;4.38;0.90;;;4.30;99.90;;;;;;5072986;28;20035;-71
2022/12/07 02:46:01;;;;;;;6.88;0.88;;;4.20;99.90;;;;;;5062603;28;20548;-71
2022/12/07 02:51:11;;;;;;;7.80;1.02;;;4.20;99.90;;;;;;5058663;28;20550;-70
2022/12/07 02:53:39;;;;;;;4.32;1.08;;;4.10;99.90;;;;;;5066322;28;20040;-71
2022/12/07 02:56:24;;;;;;;11.25;1.17;;;4.10;99.90;;;;;;5067565;28;20043;-70
2022/12/07 02:59:33;;;;;;;8.80;1.25;;;4.10;99.90;;;;;;5070802;28;20025;-70
2022/12/07 03:02:35;;;;;;;6.53;1.42;;;4.10;99.90;;;;;;5026045;28;20029;-71
2022/12/07 03:05:03;;;;;;;11.30;1.00;;;4.10;99.90;;;;;;5025871;28;20034;-71
2022/12/07 03:08:13;;;;;;;7.18;0.90;;;4.20;99.90;;;;;;5028940;28;20196;-71
2022/12/07 03:10:57;;;;;;;7.95;1.50;;;4.30;99.90;;;;;;5018253;28;20409;-71
2022/12/07 03:13:33;;;;;;;8.23;1.20;;;4.40;99.90;;;;;;5013814;28;20025;-70
2022/12/07 03:16:16;;;;;;;9.32;1.10;;;4.50;99.90;;;;;;5025755;28;20077;-71
2022/12/07 03:18:54;;;;;;;8.38;1.00;;;4.60;99.90;;;;;;5014219;28;20045;-71
2022/12/07 03:21:32;;;;;;;10.85;1.10;;;4.60;99.90;;;;;;5015281;28;20037;-70
2022/12/07 03:24:02;;;;;;;7.55;1.08;;;4.60;99.90;;;;;;5022967;28;20521;-70
2022/12/07 03:26:35;;;;;;;6.65;1.27;;;4.70;99.90;;;;;;5032465;28;20421;-70
2022/12/07 03:29:09;;;;;;;8.90;1.05;;;4.70;99.90;;;;;;5024956;28;20132;-70
2022/12/07 03:31:42;;;;;;;8.60;1.15;;;4.70;99.90;;;;;;5028860;28;20031;-70
2022/12/07 03:34:25;;;;;;;8.20;1.65;;;4.70;99.90;;;;;;5009773;28;20041;-70
2022/12/07 03:37:10;;;;;;;12.98;1.27;;;4.70;99.90;;;;;;5052055;28;20025;-70
2022/12/07 03:40:06;;;;;;;11.38;1.25;;;4.80;99.90;;;;;;5063665;28;20043;-70
2022/12/07 03:42:33;;;;;;;6.70;1.10;;;4.80;99.90;;;;;;5061667;28;20522;-70
2022/12/07 03:45:00;;;;;;;10.07;1.35;;;4.90;99.90;;;;;;5059130;28;20056;-70
2022/12/07 03:47:35;;;;;;;9.65;0.95;;;4.90;99.90;;;;;;5067517;28;20036;-71
2022/12/07 03:50:06;;;;;;;8.82;1.25;;;4.80;99.90;;;;;;5065556;28;20404;-70
2022/12/07 03:52:44;;;;;;;9.68;0.75;;;4.80;99.90;;;;;;5082917;28;20086;-70
2022/12/07 03:55:22;;;;;;;6.03;1.00;;;4.80;99.90;;;;;;5058627;28;20328;-70
2022/12/07 03:57:52;;;;;;;4.10;0.85;;;4.80;99.90;;;;;;5068236;28;20111;-71
2022/12/07 04:00:19;;;;;;;4.95;0.75;;;4.70;99.90;;;;;;5054829;28;20041;-70
2022/12/07 04:02:44;;;;;;;4.60;0.88;;;4.70;99.90;;;;;;5067450;28;20056;-70
2022/12/07 04:05:11;;;;;;;9.70;1.40;;;4.60;99.90;;;;;;5062669;28;20420;-71
2022/12/07 04:07:37;;;;;;;3.65;0.80;;;4.50;99.90;;;;;;5071844;28;20485;-70
2022/12/07 04:10:03;;;;;;;6.85;1.15;;;4.50;99.90;;;;;;5071051;28;20086;-71
2022/12/07 04:12:29;;;;;;;6.20;1.00;;;4.50;99.90;;;;;;5051919;28;20536;-70
2022/12/07 04:14:54;;;;;;;9.40;1.15;;;4.40;99.90;;;;;;5050811;28;20105;-71
2022/12/07 04:17:20;;;;;;;6.05;0.80;;;4.40;99.90;;;;;;5060416;28;20048;-70
2022/12/07 04:19:46;;;;;;;8.20;1.00;;;4.40;99.90;;;;;;5061438;28;20036;-70
2022/12/07 04:22:11;;;;;;;5.65;1.10;;;4.40;99.90;;;;;;5064520;28;20067;-71
2022/12/07 04:24:37;;;;;;;7.28;1.30;;;4.40;99.90;;;;;;5051437;28;20056;-71
2022/12/07 04:27:03;;;;;;;6.25;0.73;;;4.30;99.90;;;;;;5063313;28;20112;-70
2022/12/07 04:29:28;;;;;;;9.63;1.00;;;4.40;99.90;;;;;;5053438;28;20029;-71
2022/12/07 04:31:54;;;;;;;7.10;1.30;;;4.40;99.90;;;;;;5057065;28;20017;-70
2022/12/07 04:34:20;;;;;;;6.20;1.15;;;4.40;99.90;;;;;;5070410;28;20044;-70
2022/12/07 04:36:46;;;;;;;12.45;1.63;;;4.40;99.90;;;;;;5067637;28;20405;-70
2022/12/07 04:39:23;;;;;;;11.25;1.80;;;4.40;99.90;;;;;;5068260;28;20494;-70
2022/12/07 04:41:49;;;;;;;9.63;1.60;;;4.40;99.90;;;;;;5069507;28;20029;-71
2022/12/07 04:44:15;;;;;;;16.67;1.60;;;4.40;99.90;;;;;;5069759;28;20056;-71
2022/12/07 04:46:42;;;;;;;16.85;4.95;;;4.30;99.90;;;;;;5070645;28;20020;-71
2022/12/07 04:49:08;;;;;;;13.75;4.00;;;4.30;99.90;;;;;;5070609;28;20063;-72
2022/12/07 04:51:33;;;;;;;13.38;4.22;;;4.30;99.90;;;;;;5067472;28;20032;-71
2022/12/07 04:53:59;;;;;;;9.32;2.97;;;4.20;99.90;;;;;;5062584;28;20116;-71
2022/12/07 04:56:25;;;;;;;10.48;2.55;;;4.20;99.90;;;;;;5055170;28;20029;-71
2022/12/07 04:58:53;;;;;;;7.25;1.52;;;4.10;99.90;;;;;;5057531;28;20134;-72
2022/12/07 05:01:20;;;;;;;7.50;1.80;;;4.00;99.90;;;;;;5062915;28;20131;-71
2022/12/07 05:03:46;;;;;;;12.15;1.77;;;4.00;99.90;;;;;;5064279;28;20488;-71
2022/12/07 05:06:12;;;;;;;7.03;1.33;;;4.00;99.90;;;;;;5059556;28;20033;-71
2022/12/07 05:08:38;;;;;;;7.15;1.38;;;3.90;99.90;;;;;;5055187;28;20187;-71
2022/12/07 05:11:05;;;;;;;8.80;1.58;;;3.90;99.90;;;;;;5070568;28;20028;-71
2022/12/07 05:13:31;;;;;;;7.63;1.60;;;3.90;99.90;;;;;;5061868;28;20108;-71
2022/12/07 05:15:57;;;;;;;8.63;1.95;;;3.90;99.90;;;;;;5058507;28;20021;-71
2022/12/07 05:18:23;;;;;;;13.13;2.20;;;3.80;99.90;;;;;;5059063;28;20078;-71
2022/12/07 05:20:49;;;;;;;6.57;1.42;;;3.80;99.90;;;;;;5050693;28;20023;-71
2022/12/07 05:23:14;;;;;;;6.15;1.50;;;3.80;99.90;;;;;;5051107;28;20013;-72
2022/12/07 05:25:40;;;;;;;9.98;1.45;;;3.80;99.90;;;;;;5070546;28;20020;-71
2022/12/07 05:28:06;;;;;;;9.77;1.50;;;3.70;99.90;;;;;;5070869;28;20107;-71
2022/12/07 05:30:32;;;;;;;11.60;1.70;;;3.70;99.90;;;;;;5059978;28;20467;-71
2022/12/07 05:32:57;;;;;;;8.43;1.40;;;3.70;99.90;;;;;;5069653;28;20829;-71
2022/12/07 05:35:24;;;;;;;5.38;1.30;;;3.70;99.90;;;;;;5069472;28;20305;-72
2022/12/07 05:37:50;;;;;;;8.82;1.50;;;3.70;99.90;;;;;;5061436;28;20032;-71
2022/12/07 05:40:16;;;;;;;6.15;1.15;;;3.70;99.90;;;;;;5056247;28;20551;-71
2022/12/07 05:42:42;;;;;;;7.88;1.27;;;3.60;99.90;;;;;;5070635;28;20021;-71
2022/12/07 05:45:09;;;;;;;5.13;1.50;;;3.60;99.90;;;;;;5082160;28;20112;-71
2022/12/07 05:47:35;;;;;;;3.67;1.30;;;3.60;99.90;;;;;;5058631;28;20032;-71
2022/12/07 05:50:01;;;;;;;7.80;1.20;;;3.50;99.90;;;;;;5059220;28;20051;-71
2022/12/07 05:52:26;;;;;;;6.60;1.48;;;3.50;99.90;;;;;;5054786;28;20373;-71
2022/12/07 05:54:52;;;;;;;9.20;1.58;;;3.50;99.90;;;;;;5060485;28;20048;-71
2022/12/07 05:57:18;;;;;;;7.38;1.30;;;3.40;99.90;;;;;;5059388;28;20070;-71
2022/12/07 05:59:44;;;;;;;7.72;1.35;;;3.40;99.90;;;;;;5059634;28;20610;-71
2022/12/07 06:02:12;;;;;;;7.10;1.50;;;3.40;99.90;;;;;;5059230;28;20062;-71
2022/12/07 06:04:44;;;;;;;6.47;1.48;;;3.30;99.90;;;;;;5053578;28;20021;-71
2022/12/07 06:07:12;;;;;;;4.93;1.58;;;3.30;99.90;;;;;;5057305;28;20037;-71
2022/12/07 06:09:37;;;;;;;7.63;1.75;;;3.30;99.90;;;;;;5054896;28;20100;-71
2022/12/07 06:14:48;;;;;;;5.53;1.70;;;3.20;99.90;;;;;;5064582;28;20110;-71
2022/12/07 06:17:15;;;;;;;3.78;1.40;;;3.20;99.90;;;;;;5059865;28;20028;-71
2022/12/07 06:19:41;;;;;;;6.95;1.30;;;3.10;99.90;;;;;;5055001;28;20025;-71
2022/12/07 06:22:08;;;;;;;6.45;1.50;;;3.10;99.90;;;;;;5061501;28;20025;-71
2022/12/07 06:24:35;;;;;;;5.28;1.77;;;3.10;99.90;;;;;;5057729;28;20476;-71
2022/12/07 06:27:01;;;;;;;8.68;1.60;;;3.10;99.90;;;;;;5059336;28;20025;-71
2022/12/07 06:29:27;;;;;;;5.82;1.60;;;3.10;99.90;;;;;;5059456;28;20036;-71
2022/12/07 06:31:53;;;;;;;9.73;1.88;;;3.10;99.90;;;;;;5064372;28;20035;-71
2022/12/07 06:34:22;;;;;;;3.60;1.30;;;3.00;99.90;;;;;;5057995;28;20028;-71
2022/12/07 06:36:51;;;;;;;6.78;1.35;;;3.00;99.90;;;;;;5060249;28;20036;-71
2022/12/07 06:39:24;;;;;;;3.90;1.27;;;3.00;99.90;;;;;;5064147;28;20025;-71
2022/12/07 06:41:51;;;;;;;4.53;1.33;;;3.00;99.90;;;;;;5064470;28;20554;-71
2022/12/07 06:44:17;;;;;;;6.38;1.88;;;3.00;99.90;;;;;;5052362;28;20470;-71
2022/12/07 06:46:43;;;;;;;10.05;2.10;;;3.00;99.90;;;;;;5054426;28;20051;-71
2022/12/07 06:49:09;;;;;;;9.57;2.03;;;3.00;99.90;;;;;;5049598;28;20488;-71
2022/12/07 06:51:36;;;;;;;12.68;2.42;;;2.90;99.90;;;;;;5067611;28;20383;-71
2022/12/07 06:54:03;;;;;;;18.38;2.08;;;3.10;99.90;;;;;;5059010;28;20107;-71
2022/12/07 06:56:29;;;;;;;15.13;1.75;;;3.20;99.90;;;;;;5053561;28;20025;-71
2022/12/07 06:58:54;;;;;;;10.70;1.67;;;3.50;99.90;;;;;;5062579;28;20023;-71
2022/12/07 07:01:20;;;;;;;9.88;1.45;;;3.70;99.90;;;;;;5059772;28;20028;-71
2022/12/07 07:03:46;;;;;;;11.48;1.73;;;3.80;99.90;;;;;;5056055;28;20052;-71
2022/12/07 07:06:13;;;;;;;5.78;1.55;;;3.80;99.90;;;;;;5058082;28;20047;-71
2022/12/07 07:08:39;;;;;;;12.85;2.03;;;3.90;99.90;;;;;;5062312;28;20369;-71
2022/12/07 07:11:06;;;;;;;12.60;2.00;;;3.80;99.90;;;;;;5062969;28;20029;-71
2022/12/07 07:13:32;;;;;;;9.52;1.85;;;3.80;99.90;;;;;;5055594;28;20028;-71
2022/12/07 07:15:58;;;;;;;9.05;1.67;;;3.80;99.90;;;;;;5062169;28;20021;-71
2022/12/07 07:18:24;;;;;;;7.82;2.28;;;3.70;99.90;;;;;;5071452;28;20086;-71
2022/12/07 07:20:53;;;;;;;9.85;2.08;;;3.70;99.90;;;;;;5073091;28;20056;-71
2022/12/07 07:23:20;;;;;;;9.15;2.65;;;3.60;99.90;;;;;;5064959;28;20480;-70
2022/12/07 07:25:46;;;;;;;7.82;2.75;;;3.60;99.90;;;;;;5066194;28;20473;-70
2022/12/07 07:28:11;;;;;;;10.23;4.03;;;3.60;99.90;;;;;;5064996;28;20099;-70
2022/12/07 07:30:37;;;;;;;11.70;2.88;;;3.60;99.90;;;;;;5070156;28;20113;-70
2022/12/07 07:33:03;;;;;;;13.63;2.45;;;3.60;99.90;;;;;;5068807;28;20016;-70
2022/12/07 07:35:31;;;;;;;9.23;1.73;;;3.70;99.90;;;;;;5070415;28;20495;-70
2022/12/07 07:37:56;;;;;;;8.15;1.45;;;3.80;99.90;;;;;;5059601;28;20044;-71
2022/12/07 07:40:23;;;;;;;10.68;1.50;;;3.90;99.90;;;;;;5056413;28;20021;-70
2022/12/07 07:42:50;;;;;;;8.90;1.13;;;4.00;99.90;;;;;;5059579;28;20121;-70
2022/12/07 07:45:16;;;;;;;6.50;1.10;;;4.10;99.90;;;;;;5059592;28;20025;-70
2022/12/07 07:47:41;;;;;;;9.63;1.00;;;4.10;99.90;;;;;;5060976;28;20024;-71
2022/12/07 07:50:07;;;;;;;16.63;1.50;;;4.20;99.90;;;;;;5071055;28;20413;-70
2022/12/07 07:52:33;;;;;;;16.23;1.63;;;4.20;99.90;;;;;;5071619;28;20071;-70
2022/12/07 07:54:58;;;;;;;7.03;1.27;;;4.30;99.90;;;;;;5064513;28;20025;-70
2022/12/07 07:57:24;;;;;;;10.23;1.30;;;4.30;99.90;;;;;;5052418;28;20528;-70
2022/12/07 07:59:49;;;;;;;10.55;1.60;;;4.40;99.90;;;;;;5052013;28;20060;-71
2022/12/07 08:02:17;;;;;;;9.55;1.40;;;4.50;99.90;;;;;;5068233;28;20021;-71
2022/12/07 08:04:44;;;;;;;7.78;2.00;;;4.40;99.90;;;;;;5066489;28;20484;-71
2022/12/07 08:07:10;;;;;;;6.82;1.40;;;4.40;99.90;;;;;;5065316;28;20033;-72
2022/12/07 08:09:36;;;;;;;12.88;1.65;;;4.30;99.90;;;;;;5066457;28;20021;-71
2022/12/07 08:12:01;;;;;;;8.27;1.67;;;4.30;99.90;;;;;;5073193;28;20047;-71
2022/12/07 08:14:28;;;;;;;8.40;1.70;;;4.30;99.90;;;;;;5056923;28;20122;-71
2022/12/07 08:16:54;;;;;;;18.65;2.63;;;4.30;99.90;;;;;;5077306;28;20540;-71
2022/12/07 08:19:20;;;;;;;7.40;1.45;;;4.30;99.90;;;;;;5067013;28;20182;-71
2022/12/07 08:21:45;;;;;;;9.27;1.52;;;4.30;99.90;;;;;;5065537;28;20047;-70
2022/12/07 08:24:11;;;;;;;7.10;1.58;;;4.30;99.90;;;;;;5058560;28;20032;-70
2022/12/07 08:26:37;;;;;;;8.00;1.48;;;4.30;99.90;;;;;;5060542;28;20107;-70
2022/12/07 08:29:02;;;;;;;9.38;1.83;;;4.20;99.90;;;;;;5073296;28;20123;-70
2022/12/07 08:31:28;;;;;;;11.95;1.58;;;4.20;99.90;;;;;;5065404;28;20029;-71
2022/12/07 08:33:54;;;;;;;5.32;1.58;;;4.20;99.90;;;;;;5070990;28;20024;-71
2022/12/07 08:36:21;;;;;;;6.35;1.25;;;4.10;99.90;;;;;;5069764;28;20434;-70
2022/12/07 08:38:47;;;;;;;10.00;2.80;;;4.10;99.90;;;;;;5071745;28;20033;-71
2022/12/07 08:41:12;;;;;;;5.45;2.10;;;4.10;99.90;;;;;;5058087;28;20381;-70
2022/12/07 08:43:38;;;;;;;6.30;1.90;;;4.10;99.90;;;;;;5064970;28;20365;-70
2022/12/07 08:46:12;;;;;;;6.63;2.00;;;4.00;99.90;;;;;;5068831;28;20056;-71
2022/12/07 08:48:48;;;;;;;5.90;2.00;;;4.00;99.90;;;;;;5068437;28;20139;-70
2022/12/07 08:51:13;;;;;;;8.63;2.20;;;4.00;99.90;;;;;;5069352;28;20074;-70
2022/12/07 08:53:40;;;;;;;6.07;1.77;;;4.00;99.90;;;;;;5069998;28;20067;-71
2022/12/07 08:56:07;;;;;;;8.32;1.83;;;4.00;99.90;;;;;;5055638;28;20075;-70
2022/12/07 08:58:35;;;;;;;6.38;1.98;;;4.00;99.90;;;;;;5063618;28;20512;-70
2022/12/07 09:01:01;;;;;;;8.25;1.95;;;4.10;99.90;;;;;;5052376;28;20445;-70
2022/12/07 09:03:26;;;;;;;9.70;2.08;;;4.10;99.90;;;;;;5052274;28;20112;-70
2022/12/07 09:05:53;;;;;;;7.45;1.70;;;4.20;99.90;;;;;;5067214;28;20016;-70
2022/12/07 09:08:20;;;;;;;10.80;2.00;;;4.20;99.90;;;;;;5057421;28;20025;-73
2022/12/07 09:10:46;;;;;;;10.30;2.05;;;4.30;99.90;;;;;;5057034;28;20025;-70
2022/12/07 09:13:11;;;;;;;10.90;2.22;;;4.40;99.90;;;;;;5058682;28;20025;-70
2022/12/07 09:15:37;;;;;;;11.52;2.35;;;4.50;99.90;;;;;;5059775;28;20028;-70
2022/12/07 09:18:04;;;;;;;9.50;2.35;;;4.70;99.90;;;;;;5055176;28;20024;-71
2022/12/07 09:20:30;;;;;;;9.73;2.05;;;4.70;99.90;;;;;;5063390;28;20040;-71
2022/12/07 09:22:55;;;;;;;7.53;2.25;;;4.80;99.90;;;;;;5053495;28;20029;-71
2022/12/07 09:25:22;;;;;;;10.90;1.65;;;4.80;99.90;;;;;;5069296;28;20070;-70
2022/12/07 09:27:54;;;;;;;8.25;1.40;;;4.80;99.90;;;;;;5070780;28;20063;-70
2022/12/07 09:30:20;;;;;;;8.32;1.60;;;4.90;99.90;;;;;;5067610;28;20029;-71
2022/12/07 09:32:45;;;;;;;8.07;2.05;;;4.90;99.90;;;;;;5070908;28;20027;-71
2022/12/07 09:35:11;;;;;;;8.85;1.92;;;4.90;99.90;;;;;;5068172;28;20024;-71
2022/12/07 09:37:36;;;;;;;11.68;2.53;;;4.90;99.90;;;;;;5070439;28;20025;-71
2022/12/07 09:40:03;;;;;;;8.23;2.33;;;4.90;99.90;;;;;;5070123;28;20024;-71
2022/12/07 09:42:35;;;;;;;8.57;2.25;;;5.00;99.90;;;;;;5070424;28;20024;-71
2022/12/07 09:45:01;;;;;;;11.32;2.80;;;5.10;99.90;;;;;;5052062;28;20028;-70
2022/12/07 09:47:28;;;;;;;11.50;2.70;;;5.10;99.90;;;;;;5053730;28;20025;-70
2022/12/07 09:50:01;;;;;;;10.48;2.53;;;5.10;99.90;;;;;;5068734;28;20048;-70
2022/12/07 09:52:30;;;;;;;9.65;2.40;;;5.20;99.90;;;;;;5063226;28;20025;-71
2022/12/07 09:54:55;;;;;;;13.43;2.95;;;5.30;99.90;;;;;;5068400;28;20029;-70
2022/12/07 09:57:31;;;;;;;9.40;2.50;;;5.40;99.90;;;;;;5049129;28;20029;-70
2022/12/07 10:00:01;;;;;;;6.70;2.38;;;5.50;99.90;;;;;;5054148;28;20028;-71
2022/12/07 10:02:35;;;;;;;10.48;2.20;;;5.70;99.90;;;;;;5065176;28;21459;-72
2022/12/07 10:05:01;;;;;;;5.93;2.00;;;5.80;99.90;;;;;;5068206;28;20025;-71
2022/12/07 10:07:26;;;;;;;12.90;2.45;;;5.90;99.90;;;;;;5054747;28;20477;-71
2022/12/07 10:09:52;;;;;;;10.73;2.45;;;6.00;99.90;;;;;;5057281;28;20025;-70
2022/12/07 10:12:18;;;;;;;7.38;2.53;;;6.10;99.90;;;;;;5052969;28;20427;-71
2022/12/07 10:15:06;;;;;;;10.27;2.17;;;6.10;99.90;;;;;;5067184;28;20055;-70
2022/12/07 10:17:36;;;;;;;10.00;2.13;;;6.10;99.90;;;;;;5060842;28;20372;-70
2022/12/07 10:20:28;;;;;;;8.70;2.53;;;6.20;99.90;;;;;;5070193;28;20027;-71
2022/12/07 10:23:05;;;;;;;12.07;2.13;;;6.20;99.90;;;;;;5053827;28;20116;-71
2022/12/07 10:25:33;;;;;;;8.95;1.70;;;6.20;99.90;;;;;;5059660;28;20044;-71
2022/12/07 10:28:18;;;;;;;8.82;1.58;;;6.20;99.90;;;;;;5065878;28;20028;-71
2022/12/07 10:30:56;;;;;;;9.73;1.47;;;6.30;99.90;;;;;;5060504;28;20025;-71
2022/12/07 10:33:48;;;;;;;8.82;1.73;;;6.30;99.90;;;;;;5068260;28;20450;-71
2022/12/07 10:36:38;;;;;;;7.13;2.30;;;6.30;99.90;;;;;;5068764;28;20413;-71
2022/12/07 10:39:03;;;;;;;10.07;2.22;;;6.40;99.90;;;;;;5057461;28;20028;-71
2022/12/07 10:41:29;;;;;;;10.35;2.20;;;6.40;99.90;;;;;;5068205;28;20027;-71
2022/12/07 10:43:57;;;;;;;9.32;2.40;;;6.40;99.90;;;;;;5054005;28;20040;-71
2022/12/07 10:46:37;;;;;;;9.43;1.83;;;6.50;99.90;;;;;;5065430;28;20021;-71
2022/12/07 10:49:03;;;;;;;9.00;1.33;;;6.50;99.90;;;;;;5073052;28;20052;-71
2022/12/07 10:51:47;;;;;;;10.30;1.48;;;6.60;99.90;;;;;;5072190;28;20433;-71
2022/12/07 10:54:43;;;;;;;8.77;1.50;;;6.60;99.90;;;;;;5065714;28;20032;-71
2022/12/07 10:57:39;;;;;;;6.80;1.10;;;6.70;99.90;;;;;;5052947;28;20024;-71
2022/12/07 11:00:05;;;;;;;5.10;0.88;;;6.70;99.90;;;;;;5066960;28;20037;-71
2022/12/07 11:02:51;;;;;;;7.20;1.00;;;6.70;99.90;;;;;;5070420;28;20054;-71
2022/12/07 11:05:39;;;;;;;5.05;1.10;;;6.80;99.90;;;;;;5068997;28;20085;-70
2022/12/07 11:08:13;;;;;;;7.50;1.20;;;6.80;99.90;;;;;;5065071;28;20434;-71
2022/12/07 11:11:09;;;;;;;11.77;1.30;;;6.80;99.90;;;;;;5070062;28;20066;-70
2022/12/07 11:13:53;;;;;;;;;;;6.90;99.90;;;;;;5062240;28;20093;-70
2022/12/07 11:16:34;;;;;;;5.72;0.90;;;6.90;99.90;;;;;;5065633;28;20264;-71
2022/12/07 11:19:24;;;;;;;8.50;1.20;;;7.00;99.90;;;;;;5055487;28;20120;-71
2022/12/07 11:21:57;;;;;;;9.80;1.40;;;7.10;99.90;;;;;;5070878;28;20099;-70
2022/12/07 11:24:34;;;;;;;6.97;1.30;;;7.10;99.90;;;;;;5060120;28;20103;-71
2022/12/07 11:27:31;;;;;;;6.63;0.98;;;7.10;99.90;;;;;;5060255;28;20425;-71
2022/12/07 11:30:10;;;;;;;6.57;1.23;;;7.20;99.90;;;;;;5056558;28;20043;-71
2022/12/07 11:33:01;;;;;;;6.63;1.75;;;7.20;99.90;;;;;;5065796;28;20032;-71
2022/12/07 11:36:03;;;;;;;2.90;0.80;;;7.20;99.90;;;;;;5056603;28;20042;-71
2022/12/07 11:38:43;;;;;;;3.08;0.70;;;7.10;99.90;;;;;;5065405;28;20033;-71
2022/12/07 11:41:12;;;;;;;5.05;0.80;;;6.70;99.90;;;;;;5070862;28;20300;-71
2022/12/07 11:44:02;;;;;;;5.93;1.02;;;6.50;99.90;;;;;;5067266;28;20067;-71
2022/12/07 11:46:55;;;;;;;7.03;0.95;;;6.20;99.90;;;;;;5071343;28;20024;-71
2022/12/07 11:49:44;;;;;;;3.97;0.93;;;6.10;99.90;;;;;;5070208;28;20032;-72
2022/12/07 11:52:22;;;;;;;4.25;0.80;;;6.00;99.90;;;;;;5064744;28;20028;-71
2022/12/07 11:54:52;;;;;;;4.40;0.90;;;6.00;99.90;;;;;;5057128;28;20397;-71
2022/12/07 11:57:26;;;;;;;5.35;1.05;;;5.90;99.90;;;;;;5052240;28;20021;-71
2022/12/07 12:00:02;;;;;;;5.60;1.10;;;5.90;99.90;;;;;;5062338;28;20041;-72
2022/12/07 12:02:48;;;;;;;6.40;1.27;;;6.00;99.90;;;;;;5054832;28;20108;-71
2022/12/07 12:05:18;;;;;;;4.28;1.10;;;6.00;99.90;;;;;;5055505;28;20390;-70
2022/12/07 12:07:46;;;;;;;2.80;1.00;;;6.00;99.90;;;;;;5060938;28;20077;-70
2022/12/07 12:10:20;;;;;;;10.60;1.58;;;6.10;99.90;;;;;;5068738;28;20117;-70
2022/12/07 12:12:48;;;;;;;8.95;1.10;;;6.20;99.90;;;;;;5054893;28;20408;-70
2022/12/07 12:15:20;;;;;;;7.00;1.52;;;6.30;99.90;;;;;;5055833;28;20074;-70
2022/12/07 12:17:57;;;;;;;9.43;1.50;;;6.50;99.90;;;;;;5058224;28;20111;-70
2022/12/07 12:20:31;;;;;;;6.85;1.40;;;6.60;99.90;;;;;;5051435;28;20494;-70
2022/12/07 12:23:30;;;;;;;6.70;1.40;;;6.60;99.90;;;;;;5065379;28;20089;-70
2022/12/07 12:26:02;;;;;;;5.32;1.20;;;6.70;99.90;;;;;;5058375;28;20127;-70
2022/12/07 12:28:38;;;;;;;4.63;0.95;;;6.80;99.90;;;;;;5058551;28;20032;-71
2022/12/07 12:31:11;;;;;;;6.78;1.10;;;6.90;99.90;;;;;;5061331;28;20021;-71
2022/12/07 12:33:38;;;;;;;7.65;1.25;;;6.90;99.90;;;;;;5058135;28;20029;-71
2022/12/07 12:36:15;;;;;;;6.45;0.95;;;7.00;99.90;;;;;;5071292;28;20386;-71
2022/12/07 12:39:13;;;;;;;6.28;1.20;;;7.10;99.90;;;;;;5071333;28;20024;-71
2022/12/07 12:41:39;;;;;;;7.93;1.10;;;7.10;99.90;;;;;;5068552;28;20036;-71
2022/12/07 12:44:19;;;;;;;7.20;0.82;;;7.20;99.90;;;;;;5069659;28;20108;-71
2022/12/07 12:46:57;;;;;;;3.55;0.82;;;7.30;99.90;;;;;;5071070;28;20032;-71
2022/12/07 12:49:22;;;;;;;7.25;1.00;;;7.40;99.90;;;;;;5069137;28;20040;-71
2022/12/07 12:52:00;;;;;;;3.85;0.98;;;7.50;99.90;;;;;;5068078;28;20484;-71
2022/12/07 12:54:28;;;;;;;6.18;1.30;;;7.60;99.90;;;;;;5066960;28;20040;-71
2022/12/07 12:57:18;;;;;;;9.40;1.00;;;7.70;99.90;;;;;;5056453;28;20032;-70
2022/12/07 12:59:52;;;;;;;4.72;0.85;;;7.80;99.90;;;;;;5067809;28;20028;-70
2022/12/07 13:02:38;;;;;;;1.98;0.70;;;7.80;99.90;;;;;;5050405;28;20380;-71
2022/12/07 13:05:12;;;;;;;;;;;7.80;99.90;;;;;;5055467;28;20108;-71
2022/12/07 13:07:47;;;;;;;2.00;0.70;;;7.80;99.90;;;;;;5059322;28;19908;-71
2022/12/07 13:10:34;;;;;;;2.88;0.63;;;7.70;99.90;;;;;;5055629;28;20021;-71
2022/12/07 13:13:02;;;;;;;2.53;0.70;;;7.60;99.90;;;;;;5051210;28;20559;-72
2022/12/07 13:15:56;;;;;;;7.38;0.82;;;7.40;99.90;;;;;;5058132;28;20074;-71
2022/12/07 13:18:25;;;;;;;3.75;0.70;;;7.20;99.90;;;;;;5070850;28;20461;-72
2022/12/07 13:21:11;;;;;;;1.60;0.73;;;7.10;99.90;;;;;;5063504;28;20066;-71